Time;durP1;ratioP1;P1;durP2;ratioP2;P2;SDS_P1;SDS_P2;PMS_P1;PMS_P2;Temp;Humidity;BMP_temperature;BMP_pressure;BME280_temperature;BME280_humidity;BME280_pressure;Samples;Min_cycle;Max_cycle;Signal;HPM_P1;HPM_P2
2021/11/27 00:00:58;;;;;;;7.33;5.43;;;4.30;99.90;;;;;;5067562;28;20336;-74
2021/11/27 00:03:27;;;;;;;9.57;6.17;;;4.30;99.90;;;;;;5061405;28;20626;-74
2021/11/27 00:05:56;;;;;;;7.20;5.60;;;4.30;99.90;;;;;;5059254;28;20219;-73
2021/11/27 00:08:24;;;;;;;6.03;5.43;;;4.30;99.90;;;;;;5060701;28;20223;-73
2021/11/27 00:10:53;;;;;;;6.07;5.57;;;4.30;99.90;;;;;;5068028;28;20666;-73
2021/11/27 00:13:21;;;;;;;6.33;5.67;;;4.20;99.90;;;;;;5068089;28;20290;-73
2021/11/27 00:15:50;;;;;;;6.37;5.70;;;4.20;99.90;;;;;;5068488;28;20293;-74
2021/11/27 00:18:17;;;;;;;7.60;5.40;;;4.20;99.90;;;;;;5068181;28;20261;-73
2021/11/27 00:20:49;;;;;;;6.37;5.77;;;4.30;99.90;;;;;;5067801;28;20277;-73
2021/11/27 00:23:16;;;;;;;6.03;5.37;;;4.30;99.90;;;;;;5067727;28;20231;-73
2021/11/27 00:25:44;;;;;;;6.70;5.60;;;4.20;99.90;;;;;;5068122;28;20284;-73
2021/11/27 00:28:11;;;;;;;6.60;5.23;;;4.20;99.90;;;;;;5067900;28;20326;-72
2021/11/27 00:30:41;;;;;;;7.80;5.53;;;4.20;99.90;;;;;;5067854;28;20243;-72
2021/11/27 00:33:08;;;;;;;5.97;5.37;;;4.20;99.90;;;;;;5067439;28;20299;-72
2021/11/27 00:35:35;;;;;;;9.33;6.13;;;4.20;99.90;;;;;;5067830;28;20670;-75
2021/11/27 00:38:06;;;;;;;6.10;5.53;;;4.20;99.90;;;;;;5067575;28;20286;-75
2021/11/27 00:40:35;;;;;;;7.67;5.67;;;4.20;99.90;;;;;;5068007;28;20195;-75
2021/11/27 00:43:03;;;;;;;6.40;5.30;;;4.20;99.90;;;;;;5067779;28;20231;-75
2021/11/27 00:45:30;;;;;;;6.87;5.70;;;4.20;99.90;;;;;;5046954;28;20610;-75
2021/11/27 00:47:59;;;;;;;5.97;5.40;;;4.20;99.90;;;;;;5050484;28;20273;-75
2021/11/27 00:50:32;;;;;;;6.23;5.37;;;4.20;99.90;;;;;;5051142;28;20247;-73
2021/11/27 00:53:00;;;;;;;7.20;5.50;;;4.20;99.90;;;;;;5051085;28;20270;-73
2021/11/27 00:55:30;;;;;;;5.83;4.87;;;4.20;99.90;;;;;;5051367;28;20315;-74
2021/11/27 00:57:58;;;;;;;6.00;5.40;;;4.20;99.90;;;;;;5051499;28;20295;-74
2021/11/27 01:00:30;;;;;;;5.80;5.20;;;4.20;99.90;;;;;;5050920;28;20959;-73
2021/11/27 01:02:58;;;;;;;7.43;5.73;;;4.20;99.90;;;;;;5050788;28;20216;-73
2021/11/27 01:05:25;;;;;;;6.27;5.20;;;4.20;99.90;;;;;;5051187;28;20281;-73
2021/11/27 01:07:52;;;;;;;5.93;5.33;;;4.10;99.90;;;;;;5050948;28;20691;-73
2021/11/27 01:10:24;;;;;;;6.90;5.23;;;4.10;99.90;;;;;;5051077;28;20212;-73
2021/11/27 01:12:54;;;;;;;6.53;5.33;;;4.10;99.90;;;;;;5050682;28;20236;-73
2021/11/27 01:15:24;;;;;;;5.80;5.20;;;4.10;99.90;;;;;;5051241;28;20283;-75
2021/11/27 01:17:52;;;;;;;6.43;5.73;;;4.10;99.90;;;;;;5050833;28;20323;-74
2021/11/27 01:20:23;;;;;;;5.50;5.00;;;4.10;99.90;;;;;;5050781;28;20277;-75
2021/11/27 01:22:50;;;;;;;9.60;6.00;;;4.10;99.90;;;;;;5050694;28;20697;-75
2021/11/27 01:25:18;;;;;;;6.33;5.40;;;4.10;99.90;;;;;;5051173;28;20254;-75
2021/11/27 01:27:45;;;;;;;6.80;6.10;;;4.00;99.90;;;;;;5050680;28;20299;-75
2021/11/27 01:30:15;;;;;;;6.10;5.50;;;4.00;99.90;;;;;;5050755;28;20299;-75
2021/11/27 01:32:44;;;;;;;7.13;5.97;;;4.00;99.90;;;;;;5050432;28;20243;-75
2021/11/27 01:35:11;;;;;;;6.83;5.60;;;4.00;99.90;;;;;;5050768;28;20242;-72
2021/11/27 01:37:39;;;;;;;6.67;5.90;;;4.00;99.90;;;;;;5050302;28;20277;-72
2021/11/27 01:40:10;;;;;;;6.60;5.90;;;3.90;99.90;;;;;;5050398;28;20208;-72
2021/11/27 01:42:37;;;;;;;6.63;5.93;;;3.90;99.90;;;;;;5050523;28;20327;-72
2021/11/27 01:45:05;;;;;;;6.40;5.80;;;3.90;99.90;;;;;;5049958;28;20200;-72
2021/11/27 01:47:34;;;;;;;6.33;5.73;;;3.90;99.90;;;;;;5050619;28;20303;-72
2021/11/27 01:50:01;;;;;;;10.20;6.20;;;3.90;99.90;;;;;;5050062;28;20210;-72
2021/11/27 01:52:28;;;;;;;7.93;5.93;;;3.90;99.90;;;;;;5050513;28;20208;-72
2021/11/27 01:54:56;;;;;;;7.73;5.80;;;3.80;99.90;;;;;;5050135;28;20235;-72
2021/11/27 01:57:23;;;;;;;7.63;6.13;;;3.80;99.90;;;;;;5049904;28;20302;-72
2021/11/27 01:59:50;;;;;;;6.40;5.63;;;3.90;99.90;;;;;;5050170;28;20239;-72
2021/11/27 02:02:17;;;;;;;7.03;6.33;;;3.80;99.90;;;;;;5050174;28;20322;-73
2021/11/27 02:04:46;;;;;;;6.03;5.47;;;3.80;99.90;;;;;;5050162;28;20295;-72
2021/11/27 02:07:15;;;;;;;6.50;5.87;;;3.80;99.90;;;;;;5049699;28;20208;-75
2021/11/27 02:09:42;;;;;;;8.13;6.23;;;3.70;99.90;;;;;;5049798;28;20242;-73
2021/11/27 02:12:11;;;;;;;7.80;6.17;;;3.70;99.90;;;;;;5050018;28;20208;-73
2021/11/27 02:14:39;;;;;;;6.10;5.60;;;3.70;99.90;;;;;;5049284;28;20252;-73
2021/11/27 02:17:07;;;;;;;6.73;6.13;;;3.70;99.90;;;;;;5049595;28;20256;-73
2021/11/27 02:19:34;;;;;;;8.50;6.83;;;3.70;99.90;;;;;;5049916;28;20669;-73
2021/11/27 02:22:03;;;;;;;7.07;5.87;;;3.70;99.90;;;;;;5049382;28;20322;-74
2021/11/27 02:24:30;;;;;;;7.27;6.37;;;3.70;99.90;;;;;;5049580;28;20309;-74
2021/11/27 02:26:57;;;;;;;7.87;5.90;;;3.60;99.90;;;;;;5049637;28;20258;-74
2021/11/27 02:29:29;;;;;;;7.27;6.00;;;3.60;99.90;;;;;;5049665;28;20247;-74
2021/11/27 02:31:58;;;;;;;8.43;6.27;;;3.60;99.90;;;;;;5049146;28;20211;-74
2021/11/27 02:34:26;;;;;;;8.43;6.20;;;3.60;99.90;;;;;;5049440;28;20688;-74
2021/11/27 02:36:56;;;;;;;7.23;6.33;;;3.60;99.90;;;;;;5049591;28;20204;-74
2021/11/27 02:39:25;;;;;;;8.27;6.13;;;3.50;99.90;;;;;;5049704;28;20315;-74
2021/11/27 02:41:54;;;;;;;6.70;6.00;;;3.50;99.90;;;;;;5049392;28;20259;-74
2021/11/27 02:44:21;;;;;;;7.17;6.33;;;3.50;99.90;;;;;;5049092;28;20295;-74
2021/11/27 02:46:48;;;;;;;8.07;6.40;;;3.50;99.90;;;;;;5048920;28;20675;-74
2021/11/27 02:49:15;;;;;;;6.93;6.23;;;3.50;99.90;;;;;;5049023;28;20243;-74
2021/11/27 02:51:43;;;;;;;8.63;5.90;;;3.50;99.90;;;;;;5049435;28;20204;-74
2021/11/27 02:54:10;;;;;;;6.33;5.73;;;3.50;99.90;;;;;;5048998;28;20229;-74
2021/11/27 02:56:39;;;;;;;6.60;5.83;;;3.40;99.90;;;;;;5048696;28;20235;-74
2021/11/27 02:59:11;;;;;;;8.27;6.27;;;3.40;99.90;;;;;;5048865;28;20340;-74
2021/11/27 03:01:39;;;;;;;6.87;6.13;;;3.40;99.90;;;;;;5048880;28;20208;-74
2021/11/27 03:04:06;;;;;;;7.93;6.03;;;3.40;99.90;;;;;;5048607;28;20208;-74
2021/11/27 03:06:33;;;;;;;7.87;6.10;;;3.40;99.90;;;;;;5048962;28;20609;-74
2021/11/27 03:09:01;;;;;;;8.00;6.57;;;3.40;99.90;;;;;;5048294;28;20211;-75
2021/11/27 03:11:28;;;;;;;7.03;6.23;;;3.40;99.90;;;;;;5048932;28;20262;-75
2021/11/27 03:13:56;;;;;;;7.43;6.10;;;3.40;99.90;;;;;;5049053;28;20292;-75
2021/11/27 03:16:27;;;;;;;7.73;6.33;;;3.40;99.90;;;;;;5048898;28;20312;-74
2021/11/27 03:18:54;;;;;;;8.33;6.37;;;3.40;99.90;;;;;;5048338;28;20228;-74
2021/11/27 03:21:21;;;;;;;8.00;5.50;;;3.40;99.90;;;;;;5049007;28;20207;-74
2021/11/27 03:23:48;;;;;;;6.77;6.17;;;3.20;99.90;;;;;;5048523;28;20278;-75
2021/11/27 03:26:15;;;;;;;7.90;6.20;;;3.30;99.90;;;;;;5048395;28;20239;-74
2021/11/27 03:28:43;;;;;;;7.77;6.30;;;3.30;99.90;;;;;;5048503;28;20253;-74
2021/11/27 03:31:12;;;;;;;8.33;6.80;;;3.30;99.90;;;;;;5048716;28;20239;-74
2021/11/27 03:33:39;;;;;;;6.40;5.80;;;3.30;99.90;;;;;;5048573;28;20620;-75
2021/11/27 03:36:07;;;;;;;8.87;6.20;;;3.20;99.90;;;;;;5048324;28;20208;-74
2021/11/27 03:38:35;;;;;;;8.10;6.67;;;3.20;99.90;;;;;;5048359;28;20289;-74
2021/11/27 03:41:06;;;;;;;9.07;6.50;;;3.20;99.90;;;;;;5047832;28;20298;-74
2021/11/27 03:43:40;;;;;;;7.37;6.67;;;3.20;99.90;;;;;;5047954;28;20323;-74
2021/11/27 03:46:08;;;;;;;7.83;6.20;;;3.20;99.90;;;;;;5048539;28;20198;-75
2021/11/27 03:48:40;;;;;;;8.60;6.30;;;3.20;99.90;;;;;;5047948;28;20299;-74
2021/11/27 03:51:12;;;;;;;6.90;6.20;;;3.20;99.90;;;;;;5047848;28;20317;-74
2021/11/27 03:53:40;;;;;;;7.57;6.30;;;3.20;99.90;;;;;;5048374;28;20272;-74
2021/11/27 03:56:11;;;;;;;6.90;6.20;;;3.20;99.90;;;;;;5048429;28;20604;-74
2021/11/27 03:58:38;;;;;;;8.13;5.53;;;3.20;99.90;;;;;;5048133;28;20283;-75
2021/11/27 04:01:07;;;;;;;7.67;6.10;;;3.10;99.90;;;;;;5048136;28;20239;-75
2021/11/27 04:03:37;;;;;;;6.67;5.93;;;3.10;99.90;;;;;;5048220;28;20228;-74
2021/11/27 04:06:07;;;;;;;7.77;6.23;;;3.10;99.90;;;;;;5048059;28;20295;-75
2021/11/27 04:08:34;;;;;;;6.77;5.93;;;3.20;99.90;;;;;;5048230;28;20268;-74
2021/11/27 04:11:04;;;;;;;6.77;6.07;;;3.20;99.90;;;;;;5047768;28;20549;-74
2021/11/27 04:13:31;;;;;;;6.43;5.83;;;3.20;99.90;;;;;;5047838;28;20208;-74
2021/11/27 04:15:58;;;;;;;8.03;6.30;;;3.20;99.90;;;;;;5047766;28;20231;-73
2021/11/27 04:18:26;;;;;;;7.20;6.50;;;3.20;99.90;;;;;;5047555;28;20710;-73
2021/11/27 04:20:54;;;;;;;7.07;5.90;;;3.10;99.90;;;;;;5047560;28;20735;-73
2021/11/27 04:23:22;;;;;;;6.87;6.17;;;3.10;99.90;;;;;;5051595;28;20232;-73
2021/11/27 04:25:49;;;;;;;7.93;6.40;;;3.00;99.90;;;;;;5051738;28;20646;-73
2021/11/27 04:28:16;;;;;;;8.27;6.73;;;3.10;99.90;;;;;;5052062;28;20286;-73
2021/11/27 04:30:44;;;;;;;9.60;6.63;;;3.00;99.90;;;;;;5052191;28;20233;-76
2021/11/27 04:33:12;;;;;;;6.43;5.63;;;3.10;99.90;;;;;;5052363;28;20349;-76
2021/11/27 04:35:40;;;;;;;8.23;6.17;;;3.10;99.90;;;;;;5051812;28;20671;-76
2021/11/27 04:38:08;;;;;;;8.53;6.20;;;3.10;99.90;;;;;;5052003;28;20658;-76
2021/11/27 04:40:35;;;;;;;9.77;6.57;;;3.10;99.90;;;;;;5052089;28;20218;-76
2021/11/27 04:43:03;;;;;;;6.50;5.70;;;3.10;99.90;;;;;;5051714;28;20311;-76
2021/11/27 04:45:32;;;;;;;7.33;6.33;;;3.20;99.90;;;;;;5051670;28;20256;-76
2021/11/27 04:47:59;;;;;;;8.87;5.93;;;3.20;99.90;;;;;;5051242;28;20685;-76
2021/11/27 04:50:30;;;;;;;7.40;5.57;;;3.10;99.90;;;;;;5051897;28;20235;-76
2021/11/27 04:52:57;;;;;;;6.00;5.40;;;3.10;99.90;;;;;;5051808;28;20197;-76
2021/11/27 04:55:25;;;;;;;6.40;5.80;;;3.10;99.90;;;;;;5051596;28;20294;-75
2021/11/27 04:57:52;;;;;;;7.53;5.40;;;3.10;99.90;;;;;;5051531;28;20292;-76
2021/11/27 05:00:23;;;;;;;6.20;5.60;;;3.10;99.90;;;;;;5051066;28;20236;-73
2021/11/27 05:02:50;;;;;;;7.10;5.77;;;3.10;99.90;;;;;;5051091;28;20224;-73
2021/11/27 05:05:17;;;;;;;6.60;6.00;;;3.10;99.90;;;;;;5051172;28;20243;-73
2021/11/27 05:07:45;;;;;;;8.10;6.23;;;3.20;99.90;;;;;;5051257;28;20210;-73
2021/11/27 05:10:12;;;;;;;8.70;5.90;;;3.20;99.90;;;;;;5050831;28;20239;-73
2021/11/27 05:12:41;;;;;;;7.40;5.53;;;3.20;99.90;;;;;;5050946;28;20208;-73
2021/11/27 05:15:09;;;;;;;6.27;5.67;;;3.20;99.90;;;;;;5050978;28;20271;-73
2021/11/27 05:17:36;;;;;;;8.27;5.97;;;3.20;99.90;;;;;;5050984;28;20281;-74
2021/11/27 05:20:04;;;;;;;8.33;6.20;;;3.20;99.90;;;;;;5050639;28;20227;-74
2021/11/27 05:22:31;;;;;;;5.93;5.33;;;3.20;99.90;;;;;;5050859;28;20319;-74
2021/11/27 05:24:59;;;;;;;6.07;5.27;;;3.20;99.90;;;;;;5050796;28;20293;-74
2021/11/27 05:27:26;;;;;;;9.17;5.80;;;3.20;99.90;;;;;;5050790;28;20226;-74
2021/11/27 05:29:55;;;;;;;7.53;5.80;;;3.20;99.90;;;;;;5050991;28;20272;-74
2021/11/27 05:32:25;;;;;;;7.37;5.67;;;3.10;99.90;;;;;;5050235;28;20210;-74
2021/11/27 05:34:53;;;;;;;8.90;6.33;;;3.10;99.90;;;;;;5050864;28;20651;-74
2021/11/27 05:37:20;;;;;;;6.73;5.57;;;3.10;99.90;;;;;;5050833;28;20260;-74
2021/11/27 05:39:48;;;;;;;7.33;5.83;;;3.10;99.90;;;;;;5050789;28;20219;-73
2021/11/27 05:42:16;;;;;;;8.23;5.70;;;3.10;99.90;;;;;;5050585;28;20228;-73
2021/11/27 05:44:44;;;;;;;6.67;5.93;;;3.10;99.90;;;;;;5051006;28;20243;-72
2021/11/27 05:47:13;;;;;;;7.83;5.60;;;3.10;99.90;;;;;;5050542;28;20246;-72
2021/11/27 05:49:40;;;;;;;6.00;5.40;;;3.10;99.90;;;;;;5050422;28;20266;-72
2021/11/27 05:52:07;;;;;;;7.33;5.93;;;3.10;99.90;;;;;;5050396;28;20255;-72
2021/11/27 05:54:34;;;;;;;5.80;5.23;;;3.10;99.90;;;;;;5050364;28;20263;-72
2021/11/27 05:57:02;;;;;;;8.13;6.10;;;3.10;99.90;;;;;;5050139;28;20260;-72
2021/11/27 05:59:29;;;;;;;6.63;5.43;;;3.20;99.90;;;;;;5050003;28;20261;-75
2021/11/27 06:01:56;;;;;;;7.40;6.07;;;3.10;99.90;;;;;;5050205;28;20254;-76
2021/11/27 06:04:24;;;;;;;7.13;5.77;;;3.10;99.90;;;;;;5050117;28;20726;-76
2021/11/27 06:06:51;;;;;;;7.03;5.83;;;3.10;99.90;;;;;;5050274;28;20204;-75
2021/11/27 06:09:18;;;;;;;7.60;5.70;;;3.10;99.90;;;;;;5050307;28;20270;-75
2021/11/27 06:11:46;;;;;;;7.47;5.77;;;3.10;99.90;;;;;;5050183;28;20257;-75
2021/11/27 06:14:13;;;;;;;5.80;5.20;;;3.10;99.90;;;;;;5050194;28;20204;-75
2021/11/27 06:16:40;;;;;;;8.73;6.43;;;3.10;99.90;;;;;;5049687;28;20271;-76
2021/11/27 06:19:07;;;;;;;7.33;6.57;;;3.10;99.90;;;;;;5049685;28;20273;-76
2021/11/27 06:21:35;;;;;;;9.33;6.27;;;3.10;99.90;;;;;;5049796;28;20741;-74
2021/11/27 06:24:03;;;;;;;7.73;6.03;;;3.00;99.90;;;;;;5049583;28;20259;-74
2021/11/27 06:26:30;;;;;;;6.83;5.63;;;3.00;99.90;;;;;;5050082;28;20299;-75
2021/11/27 06:28:57;;;;;;;7.10;6.40;;;3.10;99.90;;;;;;5049585;28;20260;-75
2021/11/27 06:31:24;;;;;;;7.87;6.57;;;3.10;99.90;;;;;;5049515;28;20738;-74
2021/11/27 06:33:51;;;;;;;7.20;5.53;;;3.10;99.90;;;;;;5049824;28;20291;-76
2021/11/27 06:36:18;;;;;;;7.10;6.40;;;3.10;99.90;;;;;;5049195;28;20711;-72
2021/11/27 06:38:46;;;;;;;8.30;6.00;;;3.10;99.90;;;;;;5049653;28;20236;-73
2021/11/27 06:41:13;;;;;;;7.60;6.40;;;3.10;99.90;;;;;;5049187;28;20254;-73
2021/11/27 06:43:40;;;;;;;7.13;6.30;;;3.10;99.90;;;;;;5049059;28;20315;-72
2021/11/27 06:46:06;;;;;;;8.50;6.10;;;3.10;99.90;;;;;;5048385;28;20248;-71
2021/11/27 06:48:33;;;;;;;7.13;6.07;;;3.10;99.90;;;;;;5045167;28;20274;-71
2021/11/27 06:51:00;;;;;;;7.70;6.43;;;3.10;99.90;;;;;;5045235;28;20295;-71
2021/11/27 06:53:27;;;;;;;7.50;6.17;;;3.10;99.90;;;;;;5044945;28;20723;-71
2021/11/27 06:55:57;;;;;;;9.77;7.30;;;3.20;99.90;;;;;;5045205;28;20258;-71
2021/11/27 06:58:24;;;;;;;8.77;7.27;;;3.20;99.90;;;;;;5045209;28;20211;-71
2021/11/27 07:00:51;;;;;;;7.97;6.87;;;3.10;99.90;;;;;;5044269;28;20361;-71
2021/11/27 07:03:18;;;;;;;8.20;6.20;;;3.20;99.90;;;;;;5044628;28;20248;-73
2021/11/27 07:05:45;;;;;;;9.70;7.73;;;3.10;99.90;;;;;;5045673;28;20300;-74
2021/11/27 07:08:12;;;;;;;10.00;8.30;;;3.20;99.90;;;;;;5045321;28;20655;-74
2021/11/27 07:10:39;;;;;;;11.97;7.30;;;3.20;99.90;;;;;;5047288;28;20274;-71
2021/11/27 07:13:07;;;;;;;11.23;7.60;;;3.30;99.90;;;;;;5048725;28;20234;-71
2021/11/27 07:15:34;;;;;;;9.30;6.80;;;3.20;99.90;;;;;;5048873;28;20260;-71
2021/11/27 07:18:01;;;;;;;7.97;6.80;;;3.20;99.90;;;;;;5048150;28;20274;-71
2021/11/27 07:20:28;;;;;;;9.43;7.57;;;3.20;99.90;;;;;;5052418;28;20678;-72
2021/11/27 07:22:55;;;;;;;11.37;7.63;;;3.30;99.90;;;;;;5048167;28;20239;-72
2021/11/27 07:25:22;;;;;;;9.80;8.10;;;3.30;99.90;;;;;;5068581;28;20664;-72
2021/11/27 07:27:49;;;;;;;12.73;7.80;;;3.30;99.90;;;;;;5057869;28;20236;-72
2021/11/27 07:30:17;;;;;;;10.83;7.50;;;3.30;99.90;;;;;;5061002;28;20207;-72
2021/11/27 07:32:44;;;;;;;10.87;7.67;;;3.30;99.90;;;;;;5068102;28;20292;-71
2021/11/27 07:35:11;;;;;;;10.53;7.87;;;3.30;99.90;;;;;;5067729;28;20613;-72
2021/11/27 07:37:38;;;;;;;10.93;8.20;;;3.30;99.90;;;;;;5064964;28;20273;-72
2021/11/27 07:40:07;;;;;;;9.53;7.67;;;3.30;99.90;;;;;;5068161;28;20679;-72
2021/11/27 07:42:34;;;;;;;10.80;8.00;;;3.30;99.90;;;;;;5067957;28;20218;-72
2021/11/27 07:45:01;;;;;;;10.23;7.70;;;3.30;99.90;;;;;;5067758;28;20234;-72
2021/11/27 07:47:29;;;;;;;10.30;7.73;;;3.30;99.90;;;;;;5067110;28;20442;-72
2021/11/27 07:49:56;;;;;;;11.90;8.60;;;3.30;99.90;;;;;;5068097;28;20299;-72
2021/11/27 07:52:23;;;;;;;11.63;8.53;;;3.30;99.90;;;;;;5067848;28;20235;-73
2021/11/27 07:54:50;;;;;;;12.73;8.37;;;3.40;99.90;;;;;;5068048;28;20242;-72
2021/11/27 07:57:17;;;;;;;9.70;8.30;;;3.40;99.90;;;;;;5067991;28;20203;-73
2021/11/27 07:59:44;;;;;;;11.27;8.57;;;3.40;99.90;;;;;;5067809;28;20271;-72
2021/11/27 08:02:11;;;;;;;11.83;9.00;;;3.40;99.90;;;;;;5068337;28;20238;-73
2021/11/27 08:04:40;;;;;;;10.10;8.50;;;3.40;99.90;;;;;;5067855;28;20322;-72
2021/11/27 08:07:07;;;;;;;9.80;8.20;;;3.40;99.90;;;;;;5068042;28;20289;-73
2021/11/27 08:09:34;;;;;;;10.73;8.73;;;3.40;99.90;;;;;;5067907;28;20206;-73
2021/11/27 08:12:02;;;;;;;9.90;8.33;;;3.50;99.90;;;;;;5067892;28;20287;-72
2021/11/27 08:14:31;;;;;;;11.17;9.03;;;3.50;99.90;;;;;;5067758;28;20672;-73
2021/11/27 08:16:59;;;;;;;10.63;8.63;;;3.50;99.90;;;;;;5067867;28;20303;-73
2021/11/27 08:19:27;;;;;;;10.53;8.93;;;3.50;99.90;;;;;;5067607;28;20662;-73
2021/11/27 08:21:56;;;;;;;14.10;9.10;;;3.50;99.90;;;;;;5067390;28;20207;-73
2021/11/27 08:24:24;;;;;;;11.83;9.03;;;3.60;99.90;;;;;;5067649;28;20270;-73
2021/11/27 08:26:52;;;;;;;12.10;8.97;;;3.60;99.90;;;;;;5067832;28;20697;-73
2021/11/27 08:29:19;;;;;;;10.77;8.37;;;3.60;99.90;;;;;;5068195;28;20215;-73
2021/11/27 08:31:47;;;;;;;10.80;8.43;;;3.70;99.90;;;;;;5067605;28;20569;-73
2021/11/27 08:34:15;;;;;;;10.07;8.53;;;3.60;99.90;;;;;;5067665;28;20203;-73
2021/11/27 08:36:42;;;;;;;12.67;9.03;;;3.70;99.90;;;;;;5067615;28;20254;-73
2021/11/27 08:39:14;;;;;;;13.30;8.83;;;3.70;99.90;;;;;;5067666;28;20212;-73
2021/11/27 08:41:42;;;;;;;12.30;9.17;;;3.60;99.90;;;;;;5067728;28;20241;-73
2021/11/27 08:44:09;;;;;;;13.20;9.60;;;3.60;99.90;;;;;;5067234;28;20777;-73
2021/11/27 08:46:37;;;;;;;12.80;9.30;;;3.60;99.90;;;;;;5067548;28;20747;-72
2021/11/27 08:49:04;;;;;;;11.83;9.30;;;3.60;99.90;;;;;;5067492;28;20301;-73
2021/11/27 08:51:31;;;;;;;12.63;9.20;;;3.60;99.90;;;;;;5067744;28;20283;-73
2021/11/27 08:53:58;;;;;;;12.93;9.60;;;3.60;99.90;;;;;;5067155;28;20756;-73
2021/11/27 08:56:26;;;;;;;13.23;9.80;;;3.60;99.90;;;;;;5067381;28;20207;-72
2021/11/27 08:58:53;;;;;;;11.33;8.73;;;3.60;99.90;;;;;;5067529;28;20269;-73
2021/11/27 09:01:21;;;;;;;13.50;9.47;;;3.60;99.90;;;;;;5067009;28;20779;-73
2021/11/27 09:03:48;;;;;;;14.07;9.83;;;3.60;99.90;;;;;;5067501;28;20329;-72
2021/11/27 09:06:15;;;;;;;13.10;9.97;;;3.60;99.90;;;;;;5067220;28;20670;-72
2021/11/27 09:08:43;;;;;;;11.93;9.13;;;3.70;99.90;;;;;;5063741;28;20257;-72
2021/11/27 09:11:12;;;;;;;13.23;9.23;;;3.70;99.90;;;;;;5068055;28;20669;-73
2021/11/27 09:13:42;;;;;;;13.67;9.60;;;3.70;99.90;;;;;;5070655;28;20265;-73
2021/11/27 09:16:10;;;;;;;14.17;9.57;;;3.70;99.90;;;;;;5070755;28;20241;-73
2021/11/27 09:18:37;;;;;;;13.73;10.30;;;3.70;99.90;;;;;;5070852;28;20314;-73
2021/11/27 09:21:07;;;;;;;13.97;9.70;;;3.70;99.90;;;;;;5070625;28;20524;-73
2021/11/27 09:23:34;;;;;;;12.23;9.23;;;3.80;99.90;;;;;;5070505;28;20249;-73
2021/11/27 09:26:01;;;;;;;12.83;9.30;;;3.70;99.90;;;;;;5070756;28;20203;-73
2021/11/27 09:28:28;;;;;;;12.93;9.93;;;3.80;99.90;;;;;;5070590;28;20210;-72
2021/11/27 09:30:56;;;;;;;13.20;9.30;;;3.80;99.90;;;;;;5070493;28;20265;-73
2021/11/27 09:33:23;;;;;;;15.10;10.27;;;3.80;99.90;;;;;;5070674;28;20344;-73
2021/11/27 09:35:59;;;;;;;13.27;9.67;;;3.80;99.90;;;;;;5070582;28;20227;-73
2021/11/27 09:38:25;;;;;;;12.87;9.87;;;3.80;99.90;;;;;;5070755;28;20213;-73
2021/11/27 09:40:59;;;;;;;14.50;10.77;;;3.80;99.90;;;;;;5070516;28;20277;-73
2021/11/27 09:43:26;;;;;;;12.13;9.23;;;3.80;99.90;;;;;;5070467;28;20195;-73
2021/11/27 09:45:53;;;;;;;14.00;10.10;;;3.80;99.90;;;;;;5070354;28;20312;-73
2021/11/27 09:48:22;;;;;;;13.10;9.90;;;3.90;99.90;;;;;;5070147;28;20654;-73
2021/11/27 09:50:52;;;;;;;13.23;9.77;;;3.90;99.90;;;;;;5070361;28;20314;-73
2021/11/27 09:53:21;;;;;;;12.50;9.80;;;4.00;99.90;;;;;;5070405;28;20227;-73
2021/11/27 09:55:49;;;;;;;14.63;10.00;;;4.00;99.90;;;;;;5069870;28;20677;-73
2021/11/27 09:58:18;;;;;;;11.03;9.13;;;4.00;99.90;;;;;;5070314;28;20290;-73
2021/11/27 10:00:46;;;;;;;15.30;10.17;;;4.00;99.90;;;;;;5069776;28;20239;-73
2021/11/27 10:03:14;;;;;;;13.83;9.70;;;4.10;99.90;;;;;;5069641;28;20719;-73
2021/11/27 10:05:43;;;;;;;12.30;9.53;;;4.20;99.90;;;;;;5069608;28;20317;-73
2021/11/27 10:08:10;;;;;;;14.60;10.40;;;4.20;99.90;;;;;;5070069;28;20204;-73
2021/11/27 10:10:37;;;;;;;12.73;9.70;;;4.20;99.90;;;;;;5070057;28;20234;-73
2021/11/27 10:13:04;;;;;;;14.87;10.67;;;4.30;99.90;;;;;;5069947;28;20231;-73
2021/11/27 10:15:31;;;;;;;13.93;10.27;;;4.30;99.90;;;;;;5069504;28;20274;-73
2021/11/27 10:17:58;;;;;;;13.50;9.87;;;4.30;99.90;;;;;;5069423;28;20310;-73
2021/11/27 10:20:26;;;;;;;13.63;9.83;;;4.20;99.90;;;;;;5070018;28;20296;-73
2021/11/27 10:22:54;;;;;;;15.30;10.03;;;4.30;99.90;;;;;;5069736;28;20203;-73
2021/11/27 10:25:31;;;;;;;12.97;9.40;;;4.30;99.90;;;;;;5069708;28;20231;-73
2021/11/27 10:28:05;;;;;;;14.00;10.37;;;4.30;99.90;;;;;;5069777;28;20191;-73
2021/11/27 10:30:40;;;;;;;12.90;10.23;;;4.30;99.90;;;;;;5069440;28;20247;-73
2021/11/27 10:33:07;;;;;;;15.90;10.80;;;4.30;99.90;;;;;;5068983;28;20650;-73
2021/11/27 10:35:34;;;;;;;13.13;10.53;;;4.20;99.90;;;;;;5069799;28;20319;-73
2021/11/27 10:38:07;;;;;;;14.37;10.67;;;4.30;99.90;;;;;;5069432;28;20271;-70
2021/11/27 10:40:34;;;;;;;12.10;9.40;;;4.20;99.90;;;;;;5069432;28;20260;-73
2021/11/27 10:43:06;;;;;;;13.47;9.87;;;4.20;99.90;;;;;;5069231;28;20297;-73
2021/11/27 10:45:35;;;;;;;13.60;10.30;;;4.20;99.90;;;;;;5069249;28;20227;-73
2021/11/27 10:48:10;;;;;;;14.60;10.27;;;4.20;99.90;;;;;;5068822;28;20210;-73
2021/11/27 10:50:39;;;;;;;14.80;10.10;;;4.20;99.90;;;;;;5069228;28;20194;-73
2021/11/27 10:53:11;;;;;;;13.73;10.33;;;4.20;99.90;;;;;;5068991;28;20223;-72
2021/11/27 10:55:39;;;;;;;13.50;9.77;;;4.20;99.90;;;;;;5069133;28;20287;-73
2021/11/27 10:58:09;;;;;;;12.97;10.13;;;4.20;99.90;;;;;;5069063;28;20263;-73
2021/11/27 11:00:38;;;;;;;14.93;10.27;;;4.20;99.90;;;;;;5068541;28;20800;-73
2021/11/27 11:03:09;;;;;;;13.53;10.10;;;4.20;99.90;;;;;;5068914;28;20260;-73
2021/11/27 11:05:39;;;;;;;13.03;10.27;;;4.20;99.90;;;;;;5068966;28;20276;-72
2021/11/27 11:08:07;;;;;;;14.70;10.47;;;4.20;99.90;;;;;;5068639;28;20215;-72
2021/11/27 11:10:37;;;;;;;15.43;9.90;;;4.20;99.90;;;;;;5068726;28;20697;-73
2021/11/27 11:13:07;;;;;;;17.73;10.47;;;4.20;99.90;;;;;;5068673;28;20217;-72
2021/11/27 11:15:37;;;;;;;13.73;10.07;;;4.20;99.90;;;;;;5068379;28;20232;-72
2021/11/27 11:18:13;;;;;;;13.80;10.77;;;4.20;99.90;;;;;;5068324;28;20240;-72
2021/11/27 11:20:44;;;;;;;11.77;9.67;;;4.30;99.90;;;;;;5068183;28;20247;-72
2021/11/27 11:23:15;;;;;;;14.50;10.13;;;4.30;99.90;;;;;;5068633;28;20238;-73
2021/11/27 11:26:02;;;;;;;12.87;9.83;;;4.30;99.90;;;;;;5068427;28;20687;-73
2021/11/27 11:28:31;;;;;;;14.73;10.00;;;4.30;99.90;;;;;;5068261;28;20206;-73
2021/11/27 11:31:04;;;;;;;13.37;9.97;;;4.40;99.90;;;;;;5067919;28;20294;-73
2021/11/27 11:33:33;;;;;;;14.53;9.73;;;4.40;99.90;;;;;;5068495;28;20203;-73
2021/11/27 11:36:01;;;;;;;14.33;10.17;;;4.40;99.90;;;;;;5068165;28;20247;-73
2021/11/27 11:38:28;;;;;;;12.53;9.77;;;4.40;99.90;;;;;;5068195;28;20235;-73
2021/11/27 11:40:56;;;;;;;12.83;10.00;;;4.40;99.90;;;;;;5068120;28;20290;-73
2021/11/27 11:43:24;;;;;;;11.93;9.83;;;4.40;99.90;;;;;;5068267;28;20227;-73
2021/11/27 11:45:51;;;;;;;13.13;9.73;;;4.40;99.90;;;;;;5068237;28;20293;-73
2021/11/27 11:48:25;;;;;;;12.67;10.43;;;4.50;99.90;;;;;;5068321;28;20281;-73
2021/11/27 11:51:14;;;;;;;13.37;9.10;;;4.50;99.90;;;;;;5068485;28;20269;-73
2021/11/27 11:53:48;;;;;;;12.13;9.50;;;4.50;99.90;;;;;;5068454;28;20697;-73
2021/11/27 11:56:18;;;;;;;13.13;9.93;;;4.50;99.90;;;;;;5068213;28;20201;-73
2021/11/27 11:58:49;;;;;;;11.80;9.40;;;4.50;99.90;;;;;;5068475;28;20204;-73
2021/11/27 12:01:19;;;;;;;12.63;10.03;;;4.50;99.90;;;;;;5067414;28;20258;-73
2021/11/27 12:03:48;;;;;;;13.63;10.33;;;4.60;99.90;;;;;;5067988;28;20265;-73
2021/11/27 12:06:16;;;;;;;12.23;9.17;;;4.60;99.90;;;;;;5067766;28;20234;-73
2021/11/27 12:09:06;;;;;;;12.47;9.60;;;4.60;99.90;;;;;;5068014;28;20379;-72
2021/11/27 12:11:55;;;;;;;12.17;9.17;;;4.60;99.90;;;;;;5067840;28;20231;-73
2021/11/27 12:14:58;;;;;;;11.83;9.83;;;4.60;99.90;;;;;;5067615;28;20286;-73
2021/11/27 12:17:25;;;;;;;10.10;8.93;;;4.60;99.90;;;;;;5067828;28;20300;-73
2021/11/27 12:19:54;;;;;;;12.70;9.57;;;4.60;99.90;;;;;;5067785;28;20234;-72
2021/11/27 12:22:36;;;;;;;13.00;10.10;;;4.60;99.90;;;;;;5068145;28;20291;-72
2021/11/27 12:25:30;;;;;;;13.47;10.00;;;4.60;99.90;;;;;;5067874;28;20288;-72
2021/11/27 12:28:24;;;;;;;13.10;9.63;;;4.60;99.90;;;;;;5067546;28;20654;-73
2021/11/27 12:30:59;;;;;;;11.87;9.57;;;4.60;99.90;;;;;;5067658;28;20231;-73
2021/11/27 12:33:57;;;;;;;14.00;10.43;;;4.50;99.90;;;;;;5067482;28;20744;-73
2021/11/27 12:36:41;;;;;;;12.73;10.37;;;4.50;99.90;;;;;;5067490;28;20564;-73
2021/11/27 12:39:11;;;;;;;12.43;9.17;;;4.50;99.90;;;;;;5067559;28;20654;-73
2021/11/27 12:41:40;;;;;;;11.47;9.97;;;4.50;99.90;;;;;;5067619;28;20260;-73
2021/11/27 12:44:19;;;;;;;13.33;10.50;;;4.50;99.90;;;;;;5070709;28;20227;-73
2021/11/27 12:46:50;;;;;;;12.63;9.27;;;4.50;99.90;;;;;;5071437;28;20318;-73
2021/11/27 12:49:52;;;;;;;15.17;10.60;;;4.50;99.90;;;;;;5071309;28;20199;-73
2021/11/27 12:52:39;;;;;;;12.77;9.50;;;4.50;99.90;;;;;;5071116;28;20705;-73
2021/11/27 12:55:31;;;;;;;13.50;10.30;;;4.40;99.90;;;;;;5071384;28;20226;-73
2021/11/27 12:57:59;;;;;;;12.77;9.90;;;4.40;99.90;;;;;;5071198;28;20441;-72
2021/11/27 13:00:27;;;;;;;14.27;9.93;;;4.40;99.90;;;;;;5070973;28;20270;-73